Time;durP1;ratioP1;P1;durP2;ratioP2;P2;SDS_P1;SDS_P2;PMS_P1;PMS_P2;Temp;Humidity;BMP_temperature;BMP_pressure;BME280_temperature;BME280_humidity;BME280_pressure;Samples;Min_cycle;Max_cycle;Signal;HPM_P1;HPM_P2
2022/02/25 00:00:33;;;;;;;5.47;0.77;;;3.20;99.90;;;;;;5032071;28;20034;-70
2022/02/25 00:02:59;;;;;;;3.38;0.60;;;3.20;99.90;;;;;;5030288;28;20039;-70
2022/02/25 00:05:25;;;;;;;4.32;0.80;;;3.10;99.90;;;;;;5031683;28;20112;-75
2022/02/25 00:07:51;;;;;;;2.05;0.60;;;3.10;99.90;;;;;;5032954;28;20386;-70
2022/02/25 00:10:16;;;;;;;3.55;0.60;;;3.10;99.90;;;;;;5032640;28;20041;-69
2022/02/25 00:12:42;;;;;;;2.20;0.65;;;3.10;99.90;;;;;;5031325;28;20025;-69
2022/02/25 00:15:08;;;;;;;2.30;0.50;;;3.10;99.90;;;;;;5032186;28;20050;-70
2022/02/25 00:17:33;;;;;;;2.17;0.70;;;3.10;99.90;;;;;;5017847;28;20538;-70
2022/02/25 00:19:59;;;;;;;4.43;1.10;;;3.00;99.90;;;;;;5020472;28;20080;-70
2022/02/25 00:22:25;;;;;;;1.15;0.35;;;3.00;99.90;;;;;;5021548;28;20050;-71
2022/02/25 00:24:51;;;;;;;2.97;0.40;;;2.90;99.90;;;;;;5022472;28;20034;-69
2022/02/25 00:27:16;;;;;;;2.42;0.65;;;2.90;99.90;;;;;;5021213;28;20031;-69
2022/02/25 00:29:42;;;;;;;3.13;0.90;;;2.90;99.90;;;;;;5018905;28;20022;-71
2022/02/25 00:32:09;;;;;;;1.98;0.57;;;2.80;99.90;;;;;;5021993;28;20100;-69
2022/02/25 00:34:34;;;;;;;3.85;0.80;;;2.90;99.90;;;;;;5018423;28;20083;-69
2022/02/25 00:37:00;;;;;;;1.45;0.65;;;2.90;99.90;;;;;;5020374;28;20026;-69
2022/02/25 00:39:25;;;;;;;1.52;0.60;;;2.80;99.90;;;;;;5019099;28;20037;-70
2022/02/25 00:41:51;;;;;;;1.48;0.50;;;2.80;99.90;;;;;;5020726;28;20034;-69
2022/02/25 00:44:17;;;;;;;2.25;0.55;;;2.70;99.90;;;;;;5019847;28;20037;-69
2022/02/25 00:46:42;;;;;;;3.28;0.63;;;2.60;99.90;;;;;;5018857;28;20037;-70
2022/02/25 00:49:08;;;;;;;2.75;1.00;;;2.60;99.90;;;;;;5021418;28;20104;-70
2022/02/25 00:51:34;;;;;;;2.70;0.60;;;2.90;99.90;;;;;;5019946;28;20029;-70
2022/02/25 00:53:59;;;;;;;3.17;0.77;;;2.90;99.90;;;;;;5022087;28;20017;-69
2022/02/25 00:56:25;;;;;;;3.35;0.88;;;2.80;99.90;;;;;;5020088;28;20021;-76
2022/02/25 00:58:53;;;;;;;3.33;0.65;;;2.80;99.90;;;;;;5026125;28;20062;-69
2022/02/25 01:01:19;;;;;;;2.72;0.88;;;2.80;99.90;;;;;;5026296;28;20037;-70
2022/02/25 01:03:45;;;;;;;3.92;0.70;;;2.90;99.90;;;;;;5015311;28;20080;-69
2022/02/25 01:06:11;;;;;;;2.85;0.63;;;3.00;99.90;;;;;;5020492;28;20022;-70
2022/02/25 01:08:37;;;;;;;1.52;0.98;;;2.90;99.90;;;;;;5016626;28;20030;-69
2022/02/25 01:11:03;;;;;;;6.38;0.88;;;2.80;99.90;;;;;;5019848;28;20026;-69
2022/02/25 01:13:28;;;;;;;5.15;0.77;;;2.80;99.90;;;;;;5019088;28;20025;-69
2022/02/25 01:15:55;;;;;;;3.55;0.70;;;2.70;99.90;;;;;;5024923;28;20049;-69
2022/02/25 01:18:20;;;;;;;4.38;0.85;;;2.60;99.90;;;;;;5023849;28;20037;-70
2022/02/25 01:20:46;;;;;;;4.35;0.93;;;2.50;99.90;;;;;;5023558;28;20026;-69
2022/02/25 01:23:13;;;;;;;1.67;0.55;;;2.60;99.90;;;;;;5035831;28;20031;-69
2022/02/25 01:25:39;;;;;;;2.35;1.00;;;2.60;99.90;;;;;;5034378;28;20053;-69
2022/02/25 01:28:05;;;;;;;2.42;1.10;;;2.60;99.90;;;;;;5035758;28;20043;-69
2022/02/25 01:30:31;;;;;;;4.53;1.00;;;2.60;99.90;;;;;;5034926;28;20104;-69
2022/02/25 01:32:57;;;;;;;4.07;1.00;;;2.60;99.90;;;;;;5035554;28;20056;-69
2022/02/25 01:35:23;;;;;;;7.45;0.85;;;2.60;99.90;;;;;;5034915;28;20075;-75
2022/02/25 01:37:49;;;;;;;1.02;0.57;;;2.50;99.90;;;;;;5035197;28;20037;-69
2022/02/25 01:40:14;;;;;;;4.97;0.85;;;2.40;99.90;;;;;;5035619;28;20111;-69
2022/02/25 01:42:51;;;;;;;2.45;0.70;;;2.30;99.90;;;;;;5034263;28;20032;-71
2022/02/25 01:45:18;;;;;;;3.25;0.60;;;2.20;99.90;;;;;;5023555;28;20029;-69
2022/02/25 01:47:43;;;;;;;2.53;0.73;;;2.10;99.90;;;;;;5034573;28;20025;-69
2022/02/25 01:50:10;;;;;;;2.67;0.82;;;2.00;99.90;;;;;;5035147;28;20486;-69
2022/02/25 01:52:38;;;;;;;2.53;0.52;;;2.00;99.90;;;;;;5034121;28;20033;-70
2022/02/25 01:55:05;;;;;;;2.38;0.77;;;1.90;99.90;;;;;;5035321;28;20037;-69
2022/02/25 01:57:30;;;;;;;5.47;0.85;;;1.80;99.90;;;;;;5034053;28;20025;-69
2022/02/25 01:59:56;;;;;;;3.47;0.70;;;1.90;99.90;;;;;;5035187;28;20041;-69
2022/02/25 02:02:23;;;;;;;5.90;0.82;;;1.90;99.90;;;;;;5035457;28;20108;-69
2022/02/25 02:04:48;;;;;;;6.78;0.90;;;1.90;99.90;;;;;;5034803;28;20459;-70
2022/02/25 02:07:14;;;;;;;5.53;1.00;;;1.90;99.90;;;;;;5034856;28;20037;-69
2022/02/25 02:09:40;;;;;;;5.13;1.00;;;2.00;99.90;;;;;;5033137;28;20037;-70
2022/02/25 02:12:06;;;;;;;2.78;0.70;;;1.90;99.90;;;;;;5033396;28;20025;-69
2022/02/25 02:14:32;;;;;;;6.10;0.77;;;1.80;99.90;;;;;;5032385;28;20049;-69
2022/02/25 02:16:58;;;;;;;2.80;0.75;;;1.70;99.90;;;;;;5035028;28;20087;-70
2022/02/25 02:19:25;;;;;;;4.32;0.90;;;1.60;99.90;;;;;;5034217;28;20034;-75
2022/02/25 02:21:53;;;;;;;9.95;1.48;;;1.60;99.90;;;;;;5034036;28;20037;-69
2022/02/25 02:24:21;;;;;;;5.55;1.10;;;1.50;99.90;;;;;;5034789;28;20117;-69
2022/02/25 02:26:48;;;;;;;5.05;0.98;;;1.40;99.90;;;;;;5032802;28;20022;-69
2022/02/25 02:29:14;;;;;;;3.90;0.75;;;1.40;99.90;;;;;;5034523;28;20075;-69
2022/02/25 02:31:41;;;;;;;4.72;1.02;;;1.40;99.90;;;;;;5033909;28;20049;-69
2022/02/25 02:34:12;;;;;;;4.30;0.68;;;1.40;99.90;;;;;;5032922;28;20434;-69
2022/02/25 02:36:38;;;;;;;4.35;0.73;;;1.40;99.90;;;;;;5033628;28;20037;-70
2022/02/25 02:39:04;;;;;;;6.22;0.80;;;1.40;99.90;;;;;;5033637;28;20041;-69
2022/02/25 02:41:29;;;;;;;5.03;0.68;;;1.30;99.90;;;;;;5033220;28;20034;-69
2022/02/25 02:43:55;;;;;;;2.97;0.60;;;1.20;99.90;;;;;;5026438;28;20470;-69
2022/02/25 02:46:20;;;;;;;4.35;0.88;;;1.20;99.90;;;;;;5018582;28;20518;-69
2022/02/25 02:48:46;;;;;;;3.75;0.60;;;1.10;99.90;;;;;;5033602;28;20532;-69
2022/02/25 02:51:12;;;;;;;4.05;1.02;;;1.20;99.90;;;;;;5033742;28;20403;-69
2022/02/25 02:53:39;;;;;;;6.88;0.88;;;1.10;99.90;;;;;;5033508;28;20028;-69
2022/02/25 02:56:05;;;;;;;4.40;0.60;;;1.10;99.90;;;;;;5033989;28;20025;-69
2022/02/25 02:58:31;;;;;;;4.43;0.80;;;1.10;99.90;;;;;;5033061;28;20037;-69
2022/02/25 03:00:57;;;;;;;4.40;0.77;;;1.10;99.90;;;;;;5033361;28;20056;-69
2022/02/25 03:03:23;;;;;;;5.97;0.90;;;1.10;99.90;;;;;;5033758;28;20041;-69
2022/02/25 03:05:49;;;;;;;8.13;1.20;;;1.10;99.90;;;;;;5033273;28;20471;-69
2022/02/25 03:08:15;;;;;;;4.20;1.00;;;1.10;99.90;;;;;;5034093;28;20057;-69
2022/02/25 03:10:42;;;;;;;5.32;1.17;;;1.00;99.90;;;;;;5033346;28;20109;-70
2022/02/25 03:13:09;;;;;;;6.60;0.93;;;1.00;99.90;;;;;;5034969;28;20032;-68
2022/02/25 03:15:35;;;;;;;8.27;0.98;;;1.00;99.90;;;;;;5032765;28;20053;-70
2022/02/25 03:18:01;;;;;;;8.45;0.90;;;0.90;99.90;;;;;;5033924;28;20060;-69
2022/02/25 03:20:27;;;;;;;6.07;1.10;;;1.00;99.90;;;;;;5033765;28;20038;-76
2022/02/25 03:22:53;;;;;;;2.90;0.70;;;1.00;99.90;;;;;;5032391;28;20133;-70
2022/02/25 03:25:20;;;;;;;6.00;0.85;;;1.00;99.90;;;;;;5033671;28;20025;-69
2022/02/25 03:27:46;;;;;;;9.85;1.33;;;1.00;99.90;;;;;;5032582;28;20347;-69
2022/02/25 03:30:13;;;;;;;4.00;1.33;;;1.10;99.90;;;;;;5033734;28;20033;-69
2022/02/25 03:32:40;;;;;;;9.50;1.10;;;1.10;99.90;;;;;;5032382;28;20041;-69
2022/02/25 03:35:06;;;;;;;5.95;0.88;;;1.00;99.90;;;;;;5032251;28;20025;-69
2022/02/25 03:37:31;;;;;;;4.13;1.05;;;1.00;99.90;;;;;;5032470;28;20056;-70
2022/02/25 03:39:58;;;;;;;8.65;1.17;;;0.90;99.90;;;;;;5033160;28;20079;-69
2022/02/25 03:42:23;;;;;;;11.20;1.00;;;0.90;99.90;;;;;;5032916;28;20068;-69
2022/02/25 03:44:50;;;;;;;5.25;0.95;;;0.90;99.90;;;;;;5017302;28;20053;-69
2022/02/25 03:47:16;;;;;;;10.05;1.67;;;0.80;99.90;;;;;;5013232;28;20129;-69
2022/02/25 03:49:42;;;;;;;4.20;0.63;;;0.80;99.90;;;;;;5019184;28;20033;-69
2022/02/25 03:52:08;;;;;;;3.67;0.73;;;0.80;99.90;;;;;;5032942;28;20459;-69
2022/02/25 03:54:33;;;;;;;7.95;1.02;;;0.80;99.90;;;;;;5032069;28;20021;-69
2022/02/25 03:57:00;;;;;;;7.68;1.13;;;0.80;99.90;;;;;;5033024;28;20418;-72
2022/02/25 03:59:25;;;;;;;4.28;0.68;;;0.80;99.90;;;;;;5032596;28;20079;-69
2022/02/25 04:01:53;;;;;;;9.95;1.33;;;0.80;99.90;;;;;;5030726;28;20033;-70
2022/02/25 04:04:24;;;;;;;6.43;1.10;;;0.70;99.90;;;;;;5032804;28;20022;-69
2022/02/25 04:06:50;;;;;;;4.97;1.00;;;0.70;99.90;;;;;;5032163;28;20025;-69
2022/02/25 04:09:18;;;;;;;5.25;0.95;;;0.70;99.90;;;;;;5032286;28;20179;-69
2022/02/25 04:11:48;;;;;;;5.45;0.93;;;0.70;99.90;;;;;;5031991;28;20033;-69
2022/02/25 04:14:14;;;;;;;6.68;1.10;;;0.60;99.90;;;;;;5032192;28;20057;-69
2022/02/25 04:16:40;;;;;;;5.57;0.90;;;0.70;99.90;;;;;;5031774;28;20125;-69
2022/02/25 04:19:06;;;;;;;6.65;1.15;;;0.70;99.90;;;;;;5032601;28;20036;-69
2022/02/25 04:21:32;;;;;;;4.03;0.98;;;0.80;99.90;;;;;;5031296;28;20029;-69
2022/02/25 04:23:58;;;;;;;5.35;1.10;;;0.80;99.90;;;;;;5031846;28;20415;-69
2022/02/25 04:26:24;;;;;;;12.98;1.10;;;0.80;99.90;;;;;;5031153;28;20025;-70
2022/02/25 04:28:50;;;;;;;4.45;0.73;;;0.90;99.90;;;;;;5011893;28;20621;-68
2022/02/25 04:31:16;;;;;;;4.70;0.77;;;0.90;99.90;;;;;;5012550;28;20133;-69
2022/02/25 04:33:42;;;;;;;2.53;0.60;;;0.90;99.90;;;;;;5031067;28;20029;-69
2022/02/25 04:36:07;;;;;;;10.68;1.10;;;0.90;99.90;;;;;;5032421;28;20036;-69
2022/02/25 04:38:33;;;;;;;7.32;0.90;;;0.90;99.90;;;;;;5031687;28;20032;-69
2022/02/25 04:41:01;;;;;;;8.27;0.90;;;0.90;99.90;;;;;;5032319;28;20611;-68
2022/02/25 04:43:28;;;;;;;7.40;1.60;;;0.90;99.90;;;;;;5032224;28;20026;-68
2022/02/25 04:45:55;;;;;;;7.88;1.13;;;0.90;99.90;;;;;;5031859;28;20029;-69
2022/02/25 04:48:20;;;;;;;6.25;0.80;;;0.90;99.90;;;;;;5037083;28;20056;-69
2022/02/25 04:50:46;;;;;;;14.25;0.80;;;0.90;99.90;;;;;;5043166;28;20025;-72
2022/02/25 04:53:12;;;;;;;9.18;1.10;;;0.90;99.90;;;;;;5037059;28;20410;-71
2022/02/25 04:55:37;;;;;;;8.48;1.20;;;1.00;99.90;;;;;;5031868;28;20029;-69
2022/02/25 04:58:03;;;;;;;8.65;1.38;;;1.10;99.90;;;;;;5032505;28;20029;-69
2022/02/25 05:00:29;;;;;;;7.10;1.27;;;1.10;99.90;;;;;;5033650;28;20044;-69
2022/02/25 05:02:55;;;;;;;4.80;1.13;;;1.10;99.90;;;;;;5030972;28;20030;-70
2022/02/25 05:05:20;;;;;;;12.68;1.52;;;1.10;99.90;;;;;;5031585;28;20078;-69
2022/02/25 05:07:46;;;;;;;7.25;1.17;;;1.20;99.90;;;;;;5031066;28;20103;-70
2022/02/25 05:10:12;;;;;;;12.68;1.60;;;1.20;99.90;;;;;;5031567;28;20029;-69
2022/02/25 05:12:38;;;;;;;10.65;2.78;;;1.20;99.90;;;;;;5029975;28;20065;-69
2022/02/25 05:20:38;;;;;;;4.65;0.88;;;1.40;99.90;;;;;;5011356;28;20303;-69
2022/02/25 05:23:05;;;;;;;15.82;2.17;;;1.50;99.90;;;;;;5027211;28;20026;-69
2022/02/25 05:25:32;;;;;;;9.65;1.92;;;1.50;99.90;;;;;;5026312;28;20406;-76
2022/02/25 05:27:58;;;;;;;4.50;1.30;;;1.50;99.90;;;;;;5031153;28;20025;-69
2022/02/25 05:30:25;;;;;;;5.30;1.45;;;1.60;99.90;;;;;;5031482;28;20029;-69
2022/02/25 05:32:51;;;;;;;7.85;1.08;;;1.60;99.90;;;;;;5030796;28;20060;-70
2022/02/25 05:35:18;;;;;;;5.22;1.40;;;1.60;99.90;;;;;;5031379;28;20040;-69
2022/02/25 05:37:45;;;;;;;9.13;1.50;;;1.70;99.90;;;;;;5030678;28;20032;-69
2022/02/25 05:40:12;;;;;;;10.77;1.70;;;1.70;99.90;;;;;;5030972;28;20064;-69
2022/02/25 05:42:39;;;;;;;8.50;1.75;;;1.70;99.90;;;;;;5030247;28;20030;-69
2022/02/25 05:45:06;;;;;;;6.93;1.25;;;1.70;99.90;;;;;;5013418;28;20030;-70
2022/02/25 05:47:34;;;;;;;9.93;1.50;;;1.80;99.90;;;;;;5011678;28;20037;-75
2022/02/25 05:50:00;;;;;;;7.20;1.70;;;1.80;99.90;;;;;;5026091;28;20029;-69
2022/02/25 05:52:26;;;;;;;7.50;1.15;;;1.80;99.90;;;;;;5031218;28;20513;-68
2022/02/25 05:54:51;;;;;;;9.13;1.55;;;1.80;99.90;;;;;;5030250;28;20037;-69
2022/02/25 05:57:18;;;;;;;5.95;1.30;;;1.90;99.90;;;;;;5031043;28;20037;-69
2022/02/25 05:59:44;;;;;;;15.73;1.52;;;1.90;99.90;;;;;;5030440;28;20040;-69
2022/02/25 06:02:10;;;;;;;10.70;1.67;;;1.90;99.90;;;;;;5034439;28;20026;-69
2022/02/25 06:04:36;;;;;;;9.15;1.40;;;1.90;99.90;;;;;;5034250;28;20025;-71
2022/02/25 06:07:02;;;;;;;8.35;1.58;;;2.00;99.90;;;;;;5033488;28;20076;-69
2022/02/25 06:09:28;;;;;;;6.13;1.70;;;2.00;99.90;;;;;;5034113;28;20065;-72
2022/02/25 06:11:54;;;;;;;11.32;1.63;;;1.90;99.90;;;;;;5033601;28;20711;-70
2022/02/25 06:14:20;;;;;;;9.02;1.38;;;1.80;99.90;;;;;;5034469;28;20053;-72
2022/02/25 06:16:45;;;;;;;6.55;1.50;;;1.80;99.90;;;;;;5032740;28;20026;-70
2022/02/25 06:19:11;;;;;;;5.95;1.67;;;1.80;99.90;;;;;;5034409;28;20076;-71
2022/02/25 06:21:37;;;;;;;7.45;1.85;;;1.80;99.90;;;;;;5033970;28;20033;-71
2022/02/25 06:24:03;;;;;;;8.25;1.65;;;1.70;99.90;;;;;;5034495;28;20037;-71
2022/02/25 06:26:29;;;;;;;7.20;1.58;;;1.60;99.90;;;;;;5034455;28;20111;-72
2022/02/25 06:28:55;;;;;;;9.70;1.52;;;1.50;99.90;;;;;;5033376;28;20034;-71
2022/02/25 06:31:23;;;;;;;9.52;2.33;;;1.50;99.90;;;;;;5034157;28;20037;-70
2022/02/25 06:33:49;;;;;;;9.93;2.25;;;1.40;99.90;;;;;;5033982;28;20049;-69
2022/02/25 06:36:14;;;;;;;12.27;1.80;;;1.40;99.90;;;;;;5034341;28;20115;-72
2022/02/25 06:38:40;;;;;;;6.22;1.35;;;1.40;99.90;;;;;;5033532;28;20029;-72
2022/02/25 06:41:07;;;;;;;9.63;1.70;;;1.40;99.90;;;;;;5034340;28;20099;-72
2022/02/25 06:43:33;;;;;;;9.48;2.03;;;1.40;99.90;;;;;;5021834;28;20467;-69
2022/02/25 06:45:58;;;;;;;5.88;1.73;;;1.30;99.90;;;;;;5015828;28;20395;-71
2022/02/25 06:48:24;;;;;;;9.05;1.55;;;1.30;99.90;;;;;;5014956;28;20034;-68
2022/02/25 06:50:51;;;;;;;9.63;1.25;;;1.30;99.90;;;;;;5032862;28;20509;-69
2022/02/25 06:53:17;;;;;;;11.75;2.35;;;1.30;99.90;;;;;;5033916;28;20036;-71
2022/02/25 06:55:43;;;;;;;12.55;2.20;;;1.30;99.90;;;;;;5034115;28;20435;-70
2022/02/25 06:58:09;;;;;;;9.48;1.85;;;1.40;99.90;;;;;;5033017;28;20063;-70
2022/02/25 07:00:38;;;;;;;11.82;1.90;;;1.50;99.90;;;;;;5033346;28;20040;-76
2022/02/25 07:03:05;;;;;;;13.18;2.50;;;1.50;99.90;;;;;;5033521;28;20394;-72
2022/02/25 07:05:33;;;;;;;11.55;1.67;;;1.60;99.90;;;;;;5034123;28;20108;-72
2022/02/25 07:07:59;;;;;;;5.18;1.95;;;1.50;99.90;;;;;;5032929;28;20106;-72
2022/02/25 07:10:24;;;;;;;8.40;1.73;;;1.50;99.90;;;;;;5033925;28;20432;-72
2022/02/25 07:12:50;;;;;;;11.45;1.40;;;1.50;99.90;;;;;;5032114;28;20037;-73
2022/02/25 07:15:16;;;;;;;10.73;1.63;;;1.50;99.90;;;;;;5031416;28;20447;-72
2022/02/25 07:17:41;;;;;;;8.55;1.27;;;1.60;99.90;;;;;;5032751;28;20451;-72
2022/02/25 07:20:08;;;;;;;10.05;1.60;;;1.70;99.90;;;;;;5033386;28;20068;-72
2022/02/25 07:22:35;;;;;;;9.25;1.42;;;1.80;99.90;;;;;;5033809;28;20140;-72
2022/02/25 07:25:00;;;;;;;8.35;1.88;;;1.90;99.90;;;;;;5032979;28;20025;-72
2022/02/25 07:27:26;;;;;;;7.55;1.80;;;1.90;99.90;;;;;;5033440;28;20032;-72
2022/02/25 07:29:52;;;;;;;7.13;1.65;;;2.00;99.90;;;;;;5032444;28;20038;-72
2022/02/25 07:32:19;;;;;;;10.43;1.40;;;2.10;99.90;;;;;;5033423;28;20026;-71
2022/02/25 07:34:45;;;;;;;3.25;1.20;;;2.20;99.90;;;;;;5032824;28;20378;-71
2022/02/25 07:37:11;;;;;;;9.80;2.08;;;2.30;99.90;;;;;;5032921;28;20101;-71
2022/02/25 07:39:37;;;;;;;7.05;1.65;;;2.40;99.90;;;;;;5032132;28;20128;-77
2022/02/25 07:42:03;;;;;;;11.65;2.60;;;2.50;99.90;;;;;;5030631;28;20061;-72
2022/02/25 07:44:29;;;;;;;15.65;2.05;;;2.70;99.90;;;;;;5031768;28;20037;-71
2022/02/25 07:46:54;;;;;;;12.35;1.48;;;2.80;99.90;;;;;;5031752;28;20026;-72
2022/02/25 07:49:20;;;;;;;10.63;1.73;;;2.90;99.90;;;;;;5032608;28;20036;-72
2022/02/25 07:51:50;;;;;;;6.00;1.30;;;3.00;99.90;;;;;;5032142;28;20026;-72
2022/02/25 07:54:20;;;;;;;10.00;1.35;;;3.10;99.90;;;;;;5032933;28;20029;-71
2022/02/25 07:56:46;;;;;;;6.43;1.30;;;3.10;99.90;;;;;;5032251;28;20030;-71
2022/02/25 07:59:12;;;;;;;11.45;1.60;;;3.20;99.90;;;;;;5030771;28;20029;-71
2022/02/25 08:01:39;;;;;;;10.98;1.30;;;3.30;99.90;;;;;;5031542;28;20505;-77
2022/02/25 08:04:04;;;;;;;9.02;1.98;;;3.40;99.90;;;;;;5031426;28;20053;-71
2022/02/25 08:06:31;;;;;;;14.95;1.70;;;3.40;99.90;;;;;;5031682;28;20419;-72
2022/02/25 08:08:56;;;;;;;8.95;1.40;;;3.50;99.90;;;;;;5030996;28;20030;-71
2022/02/25 08:11:22;;;;;;;14.52;1.83;;;3.60;99.90;;;;;;5031954;28;20101;-71
2022/02/25 08:13:48;;;;;;;10.52;2.00;;;3.70;99.90;;;;;;5030518;28;20044;-71
2022/02/25 08:16:13;;;;;;;9.80;1.40;;;3.70;99.90;;;;;;5031421;28;20056;-70
2022/02/25 08:18:39;;;;;;;8.45;1.33;;;3.80;99.90;;;;;;5031556;28;20090;-77
2022/02/25 08:21:05;;;;;;;11.20;2.00;;;3.90;99.90;;;;;;5032033;28;20087;-72
2022/02/25 08:23:31;;;;;;;8.65;1.60;;;4.10;99.90;;;;;;5030400;28;20025;-71
2022/02/25 08:25:56;;;;;;;9.68;1.55;;;4.10;99.90;;;;;;5030647;28;20030;-71
2022/02/25 08:28:22;;;;;;;8.77;1.40;;;4.20;99.90;;;;;;5031433;28;20041;-71
2022/02/25 08:30:48;;;;;;;13.05;1.90;;;4.20;99.90;;;;;;5030892;28;20108;-71
2022/02/25 08:33:14;;;;;;;9.38;1.60;;;4.20;99.90;;;;;;5032122;28;20355;-71
2022/02/25 08:35:41;;;;;;;6.15;1.50;;;4.30;99.90;;;;;;5032274;28;20030;-76
2022/02/25 08:38:08;;;;;;;9.57;2.05;;;4.30;99.90;;;;;;5035658;28;20129;-71
2022/02/25 08:40:35;;;;;;;8.13;1.77;;;4.40;99.90;;;;;;5040016;28;20061;-71
2022/02/25 08:43:02;;;;;;;11.27;1.73;;;4.50;99.90;;;;;;5033091;28;20479;-71
2022/02/25 08:45:28;;;;;;;9.77;1.48;;;4.50;99.90;;;;;;5012180;28;20041;-71
2022/02/25 08:47:53;;;;;;;12.48;1.60;;;4.50;99.90;;;;;;5025930;28;20037;-71
2022/02/25 08:50:20;;;;;;;9.77;1.70;;;4.50;99.90;;;;;;5031471;28;20052;-71
2022/02/25 08:52:49;;;;;;;14.00;2.05;;;4.60;99.90;;;;;;5029630;28;20508;-71
2022/02/25 08:55:15;;;;;;;7.13;1.38;;;4.60;99.90;;;;;;5031777;28;20026;-71
2022/02/25 08:57:42;;;;;;;11.85;1.73;;;4.70;99.90;;;;;;5030957;28;20119;-76
2022/02/25 09:00:11;;;;;;;9.50;1.30;;;4.70;99.90;;;;;;5030898;28;20063;-71
2022/02/25 09:02:37;;;;;;;10.25;1.42;;;4.80;99.90;;;;;;5030910;28;20064;-72
2022/02/25 09:05:03;;;;;;;10.13;2.20;;;4.90;99.90;;;;;;5030229;28;20033;-71
2022/02/25 09:07:29;;;;;;;11.70;1.73;;;4.90;99.90;;;;;;5030938;28;20026;-71
2022/02/25 09:09:55;;;;;;;9.30;1.83;;;4.90;99.90;;;;;;5030104;28;20089;-71
2022/02/25 09:12:21;;;;;;;8.35;1.63;;;4.90;99.90;;;;;;5030551;28;20038;-71
2022/02/25 09:14:47;;;;;;;11.43;1.58;;;5.00;99.90;;;;;;5028582;28;20049;-71
2022/02/25 09:17:13;;;;;;;11.50;1.25;;;5.10;99.90;;;;;;5030279;28;20149;-73
2022/02/25 09:19:39;;;;;;;13.82;2.00;;;5.20;99.90;;;;;;5030603;28;20034;-71
2022/02/25 09:22:06;;;;;;;8.35;2.00;;;5.30;99.90;;;;;;5030344;28;20030;-71
2022/02/25 09:24:33;;;;;;;11.73;1.77;;;5.30;99.70;;;;;;5030778;28;20029;-70
2022/02/25 09:26:58;;;;;;;11.82;2.05;;;5.30;99.90;;;;;;5029891;28;20169;-70
2022/02/25 09:29:24;;;;;;;8.27;1.77;;;5.40;99.90;;;;;;5031204;28;20038;-71
2022/02/25 09:31:51;;;;;;;12.52;1.70;;;5.40;99.90;;;;;;5029911;28;20030;-73
2022/02/25 09:34:16;;;;;;;8.07;1.42;;;5.50;98.40;;;;;;5031229;28;20139;-72
2022/02/25 09:36:42;;;;;;;9.38;1.10;;;5.60;98.90;;;;;;5033425;28;20414;-76
2022/02/25 09:39:10;;;;;;;9.43;1.67;;;5.70;95.50;;;;;;5034521;28;20105;-72
2022/02/25 09:41:37;;;;;;;12.85;1.95;;;5.80;94.50;;;;;;5034974;28;20037;-72
2022/02/25 09:44:02;;;;;;;6.57;1.10;;;5.90;94.90;;;;;;5024293;28;20259;-72
2022/02/25 09:46:28;;;;;;;6.65;1.13;;;6.00;94.30;;;;;;5023682;28;20517;-72
2022/02/25 09:48:54;;;;;;;12.43;2.10;;;6.20;94.40;;;;;;5033526;28;20486;-72
2022/02/25 09:51:19;;;;;;;7.03;1.10;;;6.30;92.40;;;;;;5034134;28;20022;-72
2022/02/25 09:53:45;;;;;;;10.77;1.35;;;6.50;90.80;;;;;;5033910;28;20033;-77
2022/02/25 09:56:11;;;;;;;5.35;1.30;;;6.80;90.70;;;;;;5034068;28;20112;-73
2022/02/25 09:58:36;;;;;;;7.13;1.30;;;6.90;87.20;;;;;;5034379;28;20040;-72
2022/02/25 10:01:03;;;;;;;8.35;1.55;;;7.00;84.60;;;;;;5033671;28;20176;-72
2022/02/25 10:03:30;;;;;;;16.13;1.52;;;6.90;83.00;;;;;;5032707;28;20037;-72
2022/02/25 10:06:07;;;;;;;8.43;1.10;;;6.90;82.70;;;;;;5033324;28;20029;-72
2022/02/25 10:08:33;;;;;;;5.30;1.10;;;7.00;83.70;;;;;;5032597;28;20037;-72
2022/02/25 10:11:00;;;;;;;9.77;1.40;;;6.90;83.80;;;;;;5033471;28;20028;-72
2022/02/25 10:13:28;;;;;;;6.78;1.30;;;7.00;82.90;;;;;;5033787;28;20033;-71
2022/02/25 10:15:58;;;;;;;7.15;1.40;;;7.00;84.20;;;;;;5033362;28;20558;-72
2022/02/25 10:18:24;;;;;;;7.95;1.38;;;7.00;83.10;;;;;;5033680;28;20045;-72
2022/02/25 10:21:13;;;;;;;7.93;1.63;;;7.10;81.60;;;;;;5033155;28;20116;-72
2022/02/25 10:23:42;;;;;;;4.40;1.02;;;7.20;82.40;;;;;;5018150;28;20053;-72
2022/02/25 10:26:21;;;;;;;5.60;1.00;;;7.20;80.20;;;;;;5032924;28;20022;-72
2022/02/25 10:28:54;;;;;;;9.95;1.48;;;7.20;80.90;;;;;;5033365;28;20105;-77
2022/02/25 10:31:28;;;;;;;7.15;1.20;;;7.30;81.10;;;;;;5033424;28;20030;-72
2022/02/25 10:34:03;;;;;;;8.18;0.95;;;7.30;78.40;;;;;;5033062;28;20053;-72
2022/02/25 10:36:44;;;;;;;8.13;1.17;;;7.20;76.10;;;;;;5033178;28;20390;-72
2022/02/25 10:39:20;;;;;;;8.38;1.23;;;7.20;77.40;;;;;;5032739;28;20056;-73
2022/02/25 10:42:18;;;;;;;12.27;1.25;;;7.30;78.40;;;;;;5033559;28;20045;-73
2022/02/25 10:44:53;;;;;;;8.93;1.27;;;7.30;77.40;;;;;;5033448;28;20033;-76
2022/02/25 10:47:29;;;;;;;9.30;1.60;;;7.40;75.90;;;;;;5012850;28;20038;-72
2022/02/25 10:50:02;;;;;;;4.78;1.40;;;7.50;75.50;;;;;;5019058;28;20077;-72
2022/02/25 10:52:39;;;;;;;8.50;1.48;;;7.70;74.80;;;;;;5032606;28;20068;-72
2022/02/25 10:55:10;;;;;;;8.50;1.77;;;7.80;73.90;;;;;;5032654;28;20036;-72
2022/02/25 10:57:36;;;;;;;7.03;1.38;;;7.90;72.80;;;;;;5033285;28;20438;-74
2022/02/25 11:00:07;;;;;;;9.50;2.15;;;8.10;71.00;;;;;;5030994;28;20049;-73
2022/02/25 11:02:41;;;;;;;7.32;1.30;;;8.20;70.80;;;;;;5035988;28;20029;-74
2022/02/25 11:05:13;;;;;;;5.18;1.15;;;8.20;71.50;;;;;;5032140;28;20022;-72
2022/02/25 11:07:41;;;;;;;7.63;1.60;;;8.20;71.40;;;;;;5033163;28;20064;-73
2022/02/25 11:10:09;;;;;;;4.30;0.93;;;8.20;71.40;;;;;;5032282;28;20086;-72
2022/02/25 11:12:38;;;;;;;8.38;1.15;;;8.20;70.20;;;;;;5032886;28;20459;-72
2022/02/25 11:15:04;;;;;;;11.70;1.58;;;8.30;68.50;;;;;;5032046;28;20060;-73
2022/02/25 11:17:31;;;;;;;13.45;1.25;;;8.30;68.60;;;;;;5032797;28;20030;-73
2022/02/25 11:19:59;;;;;;;7.43;0.93;;;8.30;69.20;;;;;;5031800;28;20033;-72
2022/02/25 11:22:27;;;;;;;8.10;1.30;;;8.40;68.30;;;;;;5032945;28;20054;-72
2022/02/25 11:24:54;;;;;;;6.57;1.30;;;8.30;69.50;;;;;;5032274;28;20047;-72
2022/02/25 11:27:20;;;;;;;4.82;1.02;;;8.50;69.40;;;;;;5032750;28;20383;-75
2022/02/25 11:30:03;;;;;;;4.38;1.23;;;8.50;67.50;;;;;;5032568;28;20029;-72
2022/02/25 11:32:37;;;;;;;5.78;1.83;;;8.50;67.90;;;;;;5033119;28;20026;-72
2022/02/25 11:35:20;;;;;;;4.72;1.05;;;8.50;67.40;;;;;;5031548;28;20033;-74
2022/02/25 11:37:49;;;;;;;6.68;1.67;;;8.50;66.20;;;;;;5032400;28;20485;-76
2022/02/25 11:40:56;;;;;;;6.93;1.30;;;8.40;66.00;;;;;;5032068;28;20052;-72
2022/02/25 11:43:46;;;;;;;7.25;1.23;;;8.20;64.20;;;;;;5028983;28;20030;-72
2022/02/25 11:46:32;;;;;;;8.10;1.13;;;8.00;64.20;;;;;;5026632;28;20060;-72
2022/02/25 11:49:15;;;;;;;4.47;0.95;;;7.80;64.50;;;;;;5007822;28;20466;-72
2022/02/25 11:51:51;;;;;;;4.95;0.93;;;7.60;64.00;;;;;;5032434;28;20064;-71
2022/02/25 11:54:29;;;;;;;6.47;1.50;;;7.60;65.00;;;;;;5032207;28;20802;-72
2022/02/25 11:57:03;;;;;;;4.00;1.13;;;7.90;66.30;;;;;;5030532;28;20033;-71
2022/02/25 11:59:32;;;;;;;7.55;0.90;;;8.00;64.80;;;;;;5030450;28;20098;-71
2022/02/25 12:02:08;;;;;;;6.47;1.20;;;7.90;62.80;;;;;;5031531;28;20502;-72
2022/02/25 12:04:39;;;;;;;5.57;0.80;;;7.90;64.30;;;;;;5031833;28;20072;-71
2022/02/25 12:07:16;;;;;;;7.97;1.40;;;7.90;64.40;;;;;;5032830;28;20445;-72
2022/02/25 12:10:01;;;;;;;5.32;1.05;;;7.90;65.40;;;;;;5032240;28;20091;-72
2022/02/25 12:12:26;;;;;;;10.57;1.95;;;7.90;64.40;;;;;;5032042;28;20029;-71
2022/02/25 12:15:07;;;;;;;7.80;1.65;;;8.00;65.70;;;;;;5031109;28;20056;-72
2022/02/25 12:17:38;;;;;;;;;;;8.10;64.70;;;;;;5032278;28;20043;-70
2022/02/25 12:20:05;;;;;;;7.70;1.50;;;8.20;64.60;;;;;;5031205;28;19913;-72
2022/02/25 12:22:53;;;;;;;8.80;1.38;;;8.50;63.90;;;;;;5033766;28;20034;-71
2022/02/25 12:25:41;;;;;;;4.88;0.82;;;8.70;63.40;;;;;;5037843;28;20112;-71
2022/02/25 12:28:26;;;;;;;8.52;1.30;;;8.80;62.60;;;;;;5038603;28;20033;-71
2022/02/25 12:31:10;;;;;;;8.85;1.40;;;8.80;63.10;;;;;;5030631;28;20340;-72
2022/02/25 12:33:43;;;;;;;5.35;1.08;;;8.60;63.40;;;;;;5032101;28;20034;-74
2022/02/25 12:36:17;;;;;;;4.95;1.00;;;8.60;63.30;;;;;;5030214;28;20053;-72
2022/02/25 12:38:51;;;;;;;5.25;1.17;;;8.40;63.30;;;;;;5031683;28;20040;-72
2022/02/25 12:41:27;;;;;;;5.40;1.40;;;8.20;64.20;;;;;;5011706;28;20038;-72
2022/02/25 12:44:02;;;;;;;5.55;1.10;;;8.10;65.50;;;;;;5024909;28;20102;-72
2022/02/25 12:46:32;;;;;;;6.10;1.20;;;8.50;65.40;;;;;;5031493;28;20045;-72
2022/02/25 12:48:59;;;;;;;9.88;1.50;;;8.90;63.80;;;;;;5030278;28;20044;-71
2022/02/25 12:51:25;;;;;;;9.95;1.45;;;8.90;64.10;;;;;;5030814;28;20030;-71
2022/02/25 12:53:53;;;;;;;6.90;1.58;;;9.10;64.40;;;;;;5030907;28;20032;-72
2022/02/25 12:56:26;;;;;;;7.68;1.30;;;9.20;64.60;;;;;;5031284;28;20516;-75
2022/02/25 12:58:53;;;;;;;5.78;1.20;;;9.30;63.40;;;;;;5029663;28;20068;-75
2022/02/25 13:01:21;;;;;;;5.38;1.30;;;9.20;63.70;;;;;;5031352;28;20057;-77
2022/02/25 13:04:04;;;;;;;7.65;1.63;;;9.20;64.50;;;;;;5032026;28;20071;-76